Eikamaru No.2 — JD3056 — position and weather

sailwx.info

Track history (hours):
 
Tides and Currents Weather Stations Pressure Air Temp Water Temp Dewpoint Dewpoint Depression Visibility Wind Speed Wind Dir Waves Ship Positions

Eikamaru No.2

Last reported at 2018-Jan-21 14:47 UTC. Time now 2018-Jan-22 02:45 UTC.
Position N 34°35' E 136°57'.

Length 60 m; draft 3.3 m.

Type: Tanker. MMSI: 431001342.

Date/timePositionNaut miles runAvg speedWind from/ knotsBaromVisibWave heightAir tempDewpointWater temp
2018-Jan-21 14:47N 34°35' E 136°57'411.8
2018-Jan-21 14:29N 34°38' E 136°54'511.6
2018-Jan-21 14:00N 34°41' E 136°49'612.1
2018-Jan-21 13:30N 34°47' E 136°46'611.8
2018-Jan-21 13:00N 34°52' E 136°43'510.8
2018-Jan-21 12:30N 34°57' E 136°40'1 2.6
2018-Jan-21 12:01N 34°56' E 136°38'0 0.0
2018-Jan-21 11:30N 34°56' E 136°38'0 0.0
2018-Jan-21 11:00N 34°56' E 136°38'0 0.1
2018-Jan-21 10:30N 34°56' E 136°38'0 0.0
2018-Jan-21 10:00N 34°56' E 136°38'0 0.0
2018-Jan-21 09:31N 34°56' E 136°38'0 0.1
2018-Jan-21 09:01N 34°56' E 136°38'0 0.0
2018-Jan-21 08:30N 34°56' E 136°38'0 0.0
2018-Jan-21 08:00N 34°56' E 136°38'0 0.2
2018-Jan-21 07:30N 34°56' E 136°39'1 1.4
2018-Jan-21 07:00N 34°57' E 136°39'0 0.3
2018-Jan-21 06:31N 34°57' E 136°39'0 0.0
2018-Jan-21 06:01N 34°57' E 136°39'0 0.0
2018-Jan-21 05:30N 34°57' E 136°39'0 0.0
2018-Jan-21 05:00N 34°57' E 136°39'0 0.0
2018-Jan-21 04:30N 34°57' E 136°39'0 0.0
2018-Jan-21 04:00N 34°57' E 136°39'0 0.0
2018-Jan-21 03:26N 34°57' E 136°39'0 0.0
2018-Jan-21 03:00N 34°57' E 136°39'0 0.0
2018-Jan-21 02:29N 34°57' E 136°39'0 0.0
2018-Jan-21 02:00N 34°57' E 136°39'0 0.0
2018-Jan-21 01:30N 34°57' E 136°39'0 0.0
2018-Jan-21 01:00N 34°57' E 136°39'0 0.0
2018-Jan-21 00:30N 34°57' E 136°39'0 0.0
2018-Jan-21 00:00N 34°57' E 136°39'0 0.0
2018-Jan-20 23:30N 34°57' E 136°39'0 0.0
2018-Jan-20 23:00N 34°57' E 136°39'0 0.0
2018-Jan-20 22:29N 34°57' E 136°39'0 0.0
2018-Jan-20 22:01N 34°57' E 136°39'0 0.0
2018-Jan-20 21:29N 34°57' E 136°39'0 0.0
2018-Jan-20 21:00N 34°57' E 136°39'0 0.0
2018-Jan-20 20:30N 34°57' E 136°39'0 0.0
2018-Jan-20 20:00N 34°57' E 136°39'0 0.0
2018-Jan-20 19:30N 34°57' E 136°39'0 0.0
2018-Jan-20 19:00N 34°57' E 136°39'0 0.0
2018-Jan-20 18:30N 34°57' E 136°39'0 0.0
2018-Jan-20 18:00N 34°57' E 136°39'0 0.0
2018-Jan-20 17:30N 34°57' E 136°39'0 0.0
2018-Jan-20 17:01N 34°57' E 136°39'0 0.0
2018-Jan-20 16:30N 34°57' E 136°39'0 0.0
2018-Jan-20 16:00N 34°57' E 136°39'0 0.0
2018-Jan-20 15:30N 34°57' E 136°39'0 0.0
2018-Jan-20 15:00N 34°57' E 136°39'0 0.0
2018-Jan-20 14:30N 34°57' E 136°39'0 0.0
2018-Jan-20 14:00N 34°57' E 136°39'0 0.0
2018-Jan-20 13:29N 34°57' E 136°39'0 0.0
2018-Jan-20 13:00N 34°57' E 136°39'0 0.0
2018-Jan-20 12:30N 34°57' E 136°39'0 0.0
2018-Jan-20 12:01N 34°57' E 136°39'0 0.0
2018-Jan-20 11:30N 34°57' E 136°39'0 0.0
2018-Jan-20 11:00N 34°57' E 136°39'0 0.0
2018-Jan-20 10:30N 34°57' E 136°39'0 0.0
2018-Jan-20 10:00N 34°57' E 136°39'0 0.0
2018-Jan-20 09:30N 34°57' E 136°39'0 0.0
2018-Jan-20 09:00N 34°57' E 136°39'0 0.0
2018-Jan-20 08:30N 34°57' E 136°39'0 0.0
2018-Jan-20 08:00N 34°57' E 136°39'0 0.0
2018-Jan-20 07:30N 34°57' E 136°39'0 0.5
2018-Jan-20 07:00N 34°57' E 136°39'510.5
2018-Jan-20 06:30N 34°58' E 136°45'611.3
2018-Jan-20 06:00N 35°01' E 136°51'2 4.3
2018-Jan-20 05:30N 35°03' E 136°52'0 0.0
2018-Jan-20 05:00N 35°03' E 136°52'0 0.0
2018-Jan-20 04:30N 35°03' E 136°52'0 0.0
2018-Jan-20 04:00N 35°03' E 136°52'0 0.0
2018-Jan-20 03:30N 35°03' E 136°52'0 0.0
2018-Jan-20 03:01N 35°03' E 136°52'0 0.6
2018-Jan-20 02:30N 35°03' E 136°52'4 7.3
2018-Jan-20 02:00N 34°60' E 136°49'510.3
2018-Jan-20 01:30N 34°58' E 136°44'4 7.8
2018-Jan-20 01:00N 34°59' E 136°39'0 0.0
2018-Jan-20 00:30N 34°59' E 136°39'0 0.0
2018-Jan-20 00:00N 34°59' E 136°39'0 0.0
2018-Jan-19 23:30N 34°59' E 136°39'0 0.0
2018-Jan-19 23:01N 34°59' E 136°39'0 0.0
2018-Jan-19 22:30N 34°59' E 136°39'0 0.8
2018-Jan-19 22:00N 34°58' E 136°39'1 2.7
2018-Jan-19 21:30N 34°58' E 136°41'0 0.0
2018-Jan-19 21:00N 34°58' E 136°41'0 0.0
2018-Jan-19 20:30N 34°58' E 136°41'0 0.0
2018-Jan-19 20:00N 34°58' E 136°41'0 0.0
2018-Jan-19 19:30N 34°58' E 136°41'0 0.0
2018-Jan-19 19:00N 34°58' E 136°41'0 0.1
2018-Jan-19 18:30N 34°58' E 136°41'0 0.0
2018-Jan-19 18:00N 34°58' E 136°41'0 0.0
2018-Jan-19 17:30N 34°58' E 136°41'0 0.1
2018-Jan-19 17:00N 34°58' E 136°41'0 0.0
2018-Jan-19 16:30N 34°58' E 136°41'0 0.0
2018-Jan-19 16:00N 34°58' E 136°41'0 0.1
2018-Jan-19 15:30N 34°58' E 136°41'0 0.0
2018-Jan-19 15:00N 34°58' E 136°41'0 0.1
2018-Jan-19 14:30N 34°58' E 136°41'0 0.0
2018-Jan-19 14:00N 34°58' E 136°41'0 0.0
2018-Jan-19 13:30N 34°58' E 136°41'0 0.0
2018-Jan-19 13:00N 34°58' E 136°41'0 0.0
2018-Jan-19 12:30N 34°58' E 136°41'0 0.0
2018-Jan-19 12:00N 34°58' E 136°41'0 0.0
2018-Jan-19 11:30N 34°58' E 136°41'0 0.0
2018-Jan-19 11:01N 34°58' E 136°41'0 0.0
2018-Jan-19 10:30N 34°58' E 136°41'0 0.0
2018-Jan-19 10:00N 34°58' E 136°41'0 0.0
2018-Jan-19 09:31N 34°58' E 136°41'0 0.0
2018-Jan-19 09:00N 34°58' E 136°41'0 0.0
2018-Jan-19 08:30N 34°58' E 136°41'0 0.0
2018-Jan-19 08:00N 34°58' E 136°41'0 0.0
2018-Jan-19 07:30N 34°58' E 136°41'1 1.7
2018-Jan-19 07:00N 34°57' E 136°41'1 2.1
2018-Jan-19 06:30N 34°57' E 136°43'3 6.9
2018-Jan-19 06:00N 34°57' E 136°38'0 0.0
2018-Jan-19 05:30N 34°57' E 136°38'0 0.0
2018-Jan-19 05:00N 34°57' E 136°38'0 0.0
2018-Jan-19 04:30N 34°57' E 136°38'0 0.0
2018-Jan-19 04:00N 34°57' E 136°38'0 0.0
2018-Jan-19 03:30N 34°57' E 136°38'0 0.8
2018-Jan-19 03:00N 34°57' E 136°39'1 1.8
2018-Jan-19 02:30N 34°58' E 136°39'0 0.9
2018-Jan-19 02:00N 34°58' E 136°39'0 0.0
2018-Jan-19 01:31N 34°58' E 136°39'0 0.0
2018-Jan-19 01:00N 34°58' E 136°39'0 0.0
2018-Jan-19 00:30N 34°58' E 136°39'0 0.0
2018-Jan-19 00:00N 34°58' E 136°39'0 0.4
2018-Jan-18 23:30N 34°58' E 136°39'1 2.3
2018-Jan-18 23:00N 34°58' E 136°41'0 0.0
2018-Jan-18 22:30N 34°58' E 136°41'0 0.0
2018-Jan-18 22:00N 34°58' E 136°41'0 0.0
2018-Jan-18 21:29N 34°58' E 136°41'0 0.0
2018-Jan-18 20:58N 34°58' E 136°41'0 0.1
2018-Jan-18 20:30N 34°58' E 136°41'0 0.1
2018-Jan-18 20:01N 34°58' E 136°41'0 0.0
2018-Jan-18 19:30N 34°58' E 136°41'0 0.0
2018-Jan-18 19:00N 34°58' E 136°41'0 0.0
2018-Jan-18 18:30N 34°58' E 136°41'0 0.0
2018-Jan-18 18:00N 34°58' E 136°41'0 0.0
2018-Jan-18 17:30N 34°58' E 136°41'0 0.0
2018-Jan-18 17:00N 34°58' E 136°41'0 0.0
2018-Jan-18 16:30N 34°58' E 136°41'0 0.0
2018-Jan-18 15:59N 34°58' E 136°41'0 0.0
2018-Jan-18 15:30N 34°58' E 136°41'0 0.0
2018-Jan-18 15:00N 34°58' E 136°41'0 0.0
2018-Jan-18 14:30N 34°58' E 136°41'0 0.0
2018-Jan-18 14:00N 34°58' E 136°41'0 0.0
2018-Jan-18 13:30N 34°58' E 136°41'0 0.0
2018-Jan-18 13:00N 34°58' E 136°41'0 0.0
2018-Jan-18 12:31N 34°58' E 136°41'0 0.0
2018-Jan-18 12:01N 34°58' E 136°41'0 0.0
2018-Jan-18 11:31N 34°58' E 136°41'0 0.0
2018-Jan-18 11:00N 34°58' E 136°41'0 0.0
2018-Jan-18 10:30N 34°58' E 136°41'0 0.0
2018-Jan-18 10:00N 34°58' E 136°41'3 6.1
2018-Jan-18 09:30N 34°57' E 136°44'4 8.6
2018-Jan-18 09:00N 34°59' E 136°39'0 0.0
2018-Jan-18 08:30N 34°59' E 136°39'0 0.0
2018-Jan-18 08:00N 34°59' E 136°39'0 0.0
2018-Jan-18 07:30N 34°59' E 136°39'0 0.0
2018-Jan-18 07:00N 34°59' E 136°39'0 0.0
2018-Jan-18 06:30N 34°59' E 136°39'0 0.0
2018-Jan-18 06:00N 34°59' E 136°39'0 0.0
2018-Jan-18 05:31N 34°59' E 136°39'0 0.0
2018-Jan-18 05:00N 34°59' E 136°39'0 0.0
2018-Jan-18 04:30N 34°59' E 136°39'0 0.0
2018-Jan-18 04:00N 34°59' E 136°39'0 0.0
2018-Jan-18 03:30N 34°59' E 136°39'0 0.0
2018-Jan-18 03:00N 34°59' E 136°39'0 0.0
2018-Jan-18 02:30N 34°59' E 136°39'2 4.3
2018-Jan-18 02:01N 34°56' E 136°38'0 0.1
2018-Jan-18 01:30N 34°56' E 136°38'0 0.0
2018-Jan-18 01:00N 34°56' E 136°38'0 0.0
2018-Jan-18 00:00N 34°56' E 136°38'0 1.1
2018-Jan-17 23:58N 34°56' E 136°38'  
2018-Jan-12 13:25N 34°27' E 134°03'1610.0
2018-Jan-12 11:51N 34°25' E 134°22'411.2
2018-Jan-12 11:30N 34°27' E 134°26'611.2
2018-Jan-12 11:00N 34°29' E 134°33'611.1
2018-Jan-12 10:30N 34°31' E 134°39'511.1
2018-Jan-12 10:00N 34°33' E 134°45'611.6
2018-Jan-12 09:30N 34°35' E 134°52'612.1
2018-Jan-12 09:00N 34°37' E 134°58'611.6
2018-Jan-12 08:31N 34°36' E 135°05'611.3
2018-Jan-12 08:00N 34°35' E 135°12'611.1
2018-Jan-12 07:30N 34°34' E 135°19'610.8
2018-Jan-12 07:00N 34°33' E 135°25'0 0.9
2018-Jan-12 06:30N 34°32' E 135°25'0 0.0
2018-Jan-12 06:00N 34°32' E 135°25'0 0.0
2018-Jan-12 05:30N 34°32' E 135°25'0 0.0
2018-Jan-12 05:00N 34°32' E 135°25'0 0.0
2018-Jan-12 04:30N 34°32' E 135°25'0 0.0
2018-Jan-12 04:00N 34°32' E 135°25'0 0.0
2018-Jan-12 03:30N 34°32' E 135°25'0 0.0
2018-Jan-12 03:00N 34°32' E 135°25'0 0.0
2018-Jan-12 02:30N 34°32' E 135°25'0 0.0
2018-Jan-12 02:00N 34°32' E 135°25'0 0.0
2018-Jan-12 01:30N 34°32' E 135°25'0 0.0
2018-Jan-12 01:00N 34°32' E 135°25'0 0.0
2018-Jan-12 00:31N 34°32' E 135°25'0 0.0
2018-Jan-12 00:00N 34°32' E 135°25'0 0.0
2018-Jan-11 23:30N 34°32' E 135°25'0 0.0
2018-Jan-11 23:00N 34°32' E 135°25'0 0.3
2018-Jan-11 22:30N 34°33' E 135°25'3 5.8
2018-Jan-11 22:01N 34°33' E 135°22'2 4.1
2018-Jan-11 21:30N 34°32' E 135°20'0 0.0
2018-Jan-11 21:00N 34°32' E 135°20'0 0.0
2018-Jan-11 20:30N 34°32' E 135°20'0 0.0
2018-Jan-11 20:00N 34°32' E 135°20'0 0.0
2018-Jan-11 19:30N 34°32' E 135°20'0 0.0
2018-Jan-11 19:01N 34°32' E 135°20'0 0.0
2018-Jan-11 18:30N 34°32' E 135°20'0 0.0
2018-Jan-11 18:00N 34°32' E 135°20'0 0.0
2018-Jan-11 17:31N 34°32' E 135°20'0 0.0
2018-Jan-11 17:00N 34°32' E 135°20'0 0.0
2018-Jan-11 16:30N 34°32' E 135°20'0 0.0
2018-Jan-11 16:00N 34°32' E 135°20'0 0.0
2018-Jan-11 15:30N 34°32' E 135°20'0 0.0
2018-Jan-11 15:00N 34°32' E 135°20'  
Track history (hours):
 
Tides and Currents Weather Stations Pressure Air Temp Water Temp Dewpoint Dewpoint Depression Visibility Wind Speed Wind Dir Waves Ship Positions

Eikamaru No.2

Last reported at 2018-Jan-21 14:47 UTC. Time now 2018-Jan-22 02:45 UTC.
Position N 34°35' E 136°57'.

Length 60 m; draft 3.3 m.

Type: Tanker. MMSI: 431001342.

Date/timePositionNaut miles runAvg speedWind from/ knotsBaromVisibWave heightAir tempDewpointWater temp
2018-Jan-21 14:47N 34°35' E 136°57'411.8
2018-Jan-21 14:29N 34°38' E 136°54'511.6
2018-Jan-21 14:00N 34°41' E 136°49'612.1
2018-Jan-21 13:30N 34°47' E 136°46'611.8
2018-Jan-21 13:00N 34°52' E 136°43'510.8
2018-Jan-21 12:30N 34°57' E 136°40'1 2.6
2018-Jan-21 12:01N 34°56' E 136°38'0 0.0
2018-Jan-21 11:30N 34°56' E 136°38'0 0.0
2018-Jan-21 11:00N 34°56' E 136°38'0 0.1
2018-Jan-21 10:30N 34°56' E 136°38'0 0.0
2018-Jan-21 10:00N 34°56' E 136°38'0 0.0
2018-Jan-21 09:31N 34°56' E 136°38'0 0.1
2018-Jan-21 09:01N 34°56' E 136°38'0 0.0
2018-Jan-21 08:30N 34°56' E 136°38'0 0.0
2018-Jan-21 08:00N 34°56' E 136°38'0 0.2
2018-Jan-21 07:30N 34°56' E 136°39'1 1.4
2018-Jan-21 07:00N 34°57' E 136°39'0 0.3
2018-Jan-21 06:31N 34°57' E 136°39'0 0.0
2018-Jan-21 06:01N 34°57' E 136°39'0 0.0
2018-Jan-21 05:30N 34°57' E 136°39'0 0.0
2018-Jan-21 05:00N 34°57' E 136°39'0 0.0
2018-Jan-21 04:30N 34°57' E 136°39'0 0.0
2018-Jan-21 04:00N 34°57' E 136°39'0 0.0
2018-Jan-21 03:26N 34°57' E 136°39'0 0.0
2018-Jan-21 03:00N 34°57' E 136°39'0 0.0
2018-Jan-21 02:29N 34°57' E 136°39'0 0.0
2018-Jan-21 02:00N 34°57' E 136°39'0 0.0
2018-Jan-21 01:30N 34°57' E 136°39'0 0.0
2018-Jan-21 01:00N 34°57' E 136°39'0 0.0
2018-Jan-21 00:30N 34°57' E 136°39'0 0.0
2018-Jan-21 00:00N 34°57' E 136°39'0 0.0
2018-Jan-20 23:30N 34°57' E 136°39'0 0.0
2018-Jan-20 23:00N 34°57' E 136°39'0 0.0
2018-Jan-20 22:29N 34°57' E 136°39'0 0.0
2018-Jan-20 22:01N 34°57' E 136°39'0 0.0
2018-Jan-20 21:29N 34°57' E 136°39'0 0.0
2018-Jan-20 21:00N 34°57' E 136°39'0 0.0
2018-Jan-20 20:30N 34°57' E 136°39'0 0.0
2018-Jan-20 20:00N 34°57' E 136°39'0 0.0
2018-Jan-20 19:30N 34°57' E 136°39'0 0.0
2018-Jan-20 19:00N 34°57' E 136°39'0 0.0
2018-Jan-20 18:30N 34°57' E 136°39'0 0.0
2018-Jan-20 18:00N 34°57' E 136°39'0 0.0
2018-Jan-20 17:30N 34°57' E 136°39'0 0.0
2018-Jan-20 17:01N 34°57' E 136°39'0 0.0
2018-Jan-20 16:30N 34°57' E 136°39'0 0.0
2018-Jan-20 16:00N 34°57' E 136°39'0 0.0
2018-Jan-20 15:30N 34°57' E 136°39'0 0.0
2018-Jan-20 15:00N 34°57' E 136°39'0 0.0
2018-Jan-20 14:30N 34°57' E 136°39'0 0.0
2018-Jan-20 14:00N 34°57' E 136°39'0 0.0
2018-Jan-20 13:29N 34°57' E 136°39'0 0.0
2018-Jan-20 13:00N 34°57' E 136°39'0 0.0
2018-Jan-20 12:30N 34°57' E 136°39'0 0.0
2018-Jan-20 12:01N 34°57' E 136°39'0 0.0
2018-Jan-20 11:30N 34°57' E 136°39'0 0.0
2018-Jan-20 11:00N 34°57' E 136°39'0 0.0
2018-Jan-20 10:30N 34°57' E 136°39'0 0.0
2018-Jan-20 10:00N 34°57' E 136°39'0 0.0
2018-Jan-20 09:30N 34°57' E 136°39'0 0.0
2018-Jan-20 09:00N 34°57' E 136°39'0 0.0
2018-Jan-20 08:30N 34°57' E 136°39'0 0.0
2018-Jan-20 08:00N 34°57' E 136°39'0 0.0
2018-Jan-20 07:30N 34°57' E 136°39'0 0.5
2018-Jan-20 07:00N 34°57' E 136°39'510.5
2018-Jan-20 06:30N 34°58' E 136°45'611.3
2018-Jan-20 06:00N 35°01' E 136°51'2 4.3
2018-Jan-20 05:30N 35°03' E 136°52'0 0.0
2018-Jan-20 05:00N 35°03' E 136°52'0 0.0
2018-Jan-20 04:30N 35°03' E 136°52'0 0.0
2018-Jan-20 04:00N 35°03' E 136°52'0 0.0
2018-Jan-20 03:30N 35°03' E 136°52'0 0.0
2018-Jan-20 03:01N 35°03' E 136°52'0 0.6
2018-Jan-20 02:30N 35°03' E 136°52'4 7.3
2018-Jan-20 02:00N 34°60' E 136°49'510.3
2018-Jan-20 01:30N 34°58' E 136°44'4 7.8
2018-Jan-20 01:00N 34°59' E 136°39'0 0.0
2018-Jan-20 00:30N 34°59' E 136°39'0 0.0
2018-Jan-20 00:00N 34°59' E 136°39'0 0.0
2018-Jan-19 23:30N 34°59' E 136°39'0 0.0
2018-Jan-19 23:01N 34°59' E 136°39'0 0.0
2018-Jan-19 22:30N 34°59' E 136°39'0 0.8
2018-Jan-19 22:00N 34°58' E 136°39'1 2.7
2018-Jan-19 21:30N 34°58' E 136°41'0 0.0
2018-Jan-19 21:00N 34°58' E 136°41'0 0.0
2018-Jan-19 20:30N 34°58' E 136°41'0 0.0
2018-Jan-19 20:00N 34°58' E 136°41'0 0.0
2018-Jan-19 19:30N 34°58' E 136°41'0 0.0
2018-Jan-19 19:00N 34°58' E 136°41'0 0.1
2018-Jan-19 18:30N 34°58' E 136°41'0 0.0
2018-Jan-19 18:00N 34°58' E 136°41'0 0.0
2018-Jan-19 17:30N 34°58' E 136°41'0 0.1
2018-Jan-19 17:00N 34°58' E 136°41'0 0.0
2018-Jan-19 16:30N 34°58' E 136°41'0 0.0
2018-Jan-19 16:00N 34°58' E 136°41'0 0.1
2018-Jan-19 15:30N 34°58' E 136°41'0 0.0
2018-Jan-19 15:00N 34°58' E 136°41'0 0.1
2018-Jan-19 14:30N 34°58' E 136°41'0 0.0
2018-Jan-19 14:00N 34°58' E 136°41'0 0.0
2018-Jan-19 13:30N 34°58' E 136°41'0 0.0
2018-Jan-19 13:00N 34°58' E 136°41'0 0.0
2018-Jan-19 12:30N 34°58' E 136°41'0 0.0
2018-Jan-19 12:00N 34°58' E 136°41'0 0.0
2018-Jan-19 11:30N 34°58' E 136°41'0 0.0
2018-Jan-19 11:01N 34°58' E 136°41'0 0.0
2018-Jan-19 10:30N 34°58' E 136°41'0 0.0
2018-Jan-19 10:00N 34°58' E 136°41'0 0.0
2018-Jan-19 09:31N 34°58' E 136°41'0 0.0
2018-Jan-19 09:00N 34°58' E 136°41'0 0.0
2018-Jan-19 08:30N 34°58' E 136°41'0 0.0
2018-Jan-19 08:00N 34°58' E 136°41'0 0.0
2018-Jan-19 07:30N 34°58' E 136°41'1 1.7
2018-Jan-19 07:00N 34°57' E 136°41'1 2.1
2018-Jan-19 06:30N 34°57' E 136°43'3 6.9
2018-Jan-19 06:00N 34°57' E 136°38'0 0.0
2018-Jan-19 05:30N 34°57' E 136°38'0 0.0
2018-Jan-19 05:00N 34°57' E 136°38'0 0.0
2018-Jan-19 04:30N 34°57' E 136°38'0 0.0
2018-Jan-19 04:00N 34°57' E 136°38'0 0.0
2018-Jan-19 03:30N 34°57' E 136°38'0 0.8
2018-Jan-19 03:00N 34°57' E 136°39'1 1.8
2018-Jan-19 02:30N 34°58' E 136°39'0 0.9
2018-Jan-19 02:00N 34°58' E 136°39'0 0.0
2018-Jan-19 01:31N 34°58' E 136°39'0 0.0
2018-Jan-19 01:00N 34°58' E 136°39'0 0.0
2018-Jan-19 00:30N 34°58' E 136°39'0 0.0
2018-Jan-19 00:00N 34°58' E 136°39'0 0.4
2018-Jan-18 23:30N 34°58' E 136°39'1 2.3
2018-Jan-18 23:00N 34°58' E 136°41'0 0.0
2018-Jan-18 22:30N 34°58' E 136°41'0 0.0
2018-Jan-18 22:00N 34°58' E 136°41'0 0.0
2018-Jan-18 21:29N 34°58' E 136°41'0 0.0
2018-Jan-18 20:58N 34°58' E 136°41'0 0.1
2018-Jan-18 20:30N 34°58' E 136°41'0 0.1
2018-Jan-18 20:01N 34°58' E 136°41'0 0.0
2018-Jan-18 19:30N 34°58' E 136°41'0 0.0
2018-Jan-18 19:00N 34°58' E 136°41'0 0.0
2018-Jan-18 18:30N 34°58' E 136°41'0 0.0
2018-Jan-18 18:00N 34°58' E 136°41'0 0.0
2018-Jan-18 17:30N 34°58' E 136°41'0 0.0
2018-Jan-18 17:00N 34°58' E 136°41'0 0.0
2018-Jan-18 16:30N 34°58' E 136°41'0 0.0
2018-Jan-18 15:59N 34°58' E 136°41'0 0.0
2018-Jan-18 15:30N 34°58' E 136°41'0 0.0
2018-Jan-18 15:00N 34°58' E 136°41'0 0.0
2018-Jan-18 14:30N 34°58' E 136°41'0 0.0
2018-Jan-18 14:00N 34°58' E 136°41'0 0.0
2018-Jan-18 13:30N 34°58' E 136°41'0 0.0
2018-Jan-18 13:00N 34°58' E 136°41'0 0.0
2018-Jan-18 12:31N 34°58' E 136°41'0 0.0
2018-Jan-18 12:01N 34°58' E 136°41'0 0.0
2018-Jan-18 11:31N 34°58' E 136°41'0 0.0
2018-Jan-18 11:00N 34°58' E 136°41'0 0.0
2018-Jan-18 10:30N 34°58' E 136°41'0 0.0
2018-Jan-18 10:00N 34°58' E 136°41'3 6.1
2018-Jan-18 09:30N 34°57' E 136°44'4 8.6
2018-Jan-18 09:00N 34°59' E 136°39'0 0.0
2018-Jan-18 08:30N 34°59' E 136°39'0 0.0
2018-Jan-18 08:00N 34°59' E 136°39'0 0.0
2018-Jan-18 07:30N 34°59' E 136°39'0 0.0
2018-Jan-18 07:00N 34°59' E 136°39'0 0.0
2018-Jan-18 06:30N 34°59' E 136°39'0 0.0
2018-Jan-18 06:00N 34°59' E 136°39'0 0.0
2018-Jan-18 05:31N 34°59' E 136°39'0 0.0
2018-Jan-18 05:00N 34°59' E 136°39'0 0.0
2018-Jan-18 04:30N 34°59' E 136°39'0 0.0
2018-Jan-18 04:00N 34°59' E 136°39'0 0.0
2018-Jan-18 03:30N 34°59' E 136°39'0 0.0
2018-Jan-18 03:00N 34°59' E 136°39'0 0.0
2018-Jan-18 02:30N 34°59' E 136°39'2 4.3
2018-Jan-18 02:01N 34°56' E 136°38'0 0.1
2018-Jan-18 01:30N 34°56' E 136°38'0 0.0
2018-Jan-18 01:00N 34°56' E 136°38'0 0.0
2018-Jan-18 00:00N 34°56' E 136°38'0 1.1
2018-Jan-17 23:58N 34°56' E 136°38'  
2018-Jan-12 13:25N 34°27' E 134°03'1610.0
2018-Jan-12 11:51N 34°25' E 134°22'411.2
2018-Jan-12 11:30N 34°27' E 134°26'611.2
2018-Jan-12 11:00N 34°29' E 134°33'611.1
2018-Jan-12 10:30N 34°31' E 134°39'511.1
2018-Jan-12 10:00N 34°33' E 134°45'611.6
2018-Jan-12 09:30N 34°35' E 134°52'612.1
2018-Jan-12 09:00N 34°37' E 134°58'611.6
2018-Jan-12 08:31N 34°36' E 135°05'611.3
2018-Jan-12 08:00N 34°35' E 135°12'611.1
2018-Jan-12 07:30N 34°34' E 135°19'610.8
2018-Jan-12 07:00N 34°33' E 135°25'0 0.9
2018-Jan-12 06:30N 34°32' E 135°25'0 0.0
2018-Jan-12 06:00N 34°32' E 135°25'0 0.0
2018-Jan-12 05:30N 34°32' E 135°25'0 0.0
2018-Jan-12 05:00N 34°32' E 135°25'0 0.0
2018-Jan-12 04:30N 34°32' E 135°25'0 0.0
2018-Jan-12 04:00N 34°32' E 135°25'0 0.0
2018-Jan-12 03:30N 34°32' E 135°25'0 0.0
2018-Jan-12 03:00N 34°32' E 135°25'0 0.0
2018-Jan-12 02:30N 34°32' E 135°25'0 0.0
2018-Jan-12 02:00N 34°32' E 135°25'0 0.0
2018-Jan-12 01:30N 34°32' E 135°25'0 0.0
2018-Jan-12 01:00N 34°32' E 135°25'0 0.0
2018-Jan-12 00:31N 34°32' E 135°25'0 0.0
2018-Jan-12 00:00N 34°32' E 135°25'0 0.0
2018-Jan-11 23:30N 34°32' E 135°25'0 0.0
2018-Jan-11 23:00N 34°32' E 135°25'0 0.3
2018-Jan-11 22:30N 34°33' E 135°25'3 5.8
2018-Jan-11 22:01N 34°33' E 135°22'2 4.1
2018-Jan-11 21:30N 34°32' E 135°20'0 0.0
2018-Jan-11 21:00N 34°32' E 135°20'0 0.0
2018-Jan-11 20:30N 34°32' E 135°20'0 0.0
2018-Jan-11 20:00N 34°32' E 135°20'0 0.0
2018-Jan-11 19:30N 34°32' E 135°20'0 0.0
2018-Jan-11 19:01N 34°32' E 135°20'0 0.0
2018-Jan-11 18:30N 34°32' E 135°20'0 0.0
2018-Jan-11 18:00N 34°32' E 135°20'0 0.0
2018-Jan-11 17:31N 34°32' E 135°20'0 0.0
2018-Jan-11 17:00N 34°32' E 135°20'0 0.0
2018-Jan-11 16:30N 34°32' E 135°20'0 0.0
2018-Jan-11 16:00N 34°32' E 135°20'0 0.0
2018-Jan-11 15:30N 34°32' E 135°20'0 0.0
2018-Jan-11 15:00N 34°32' E 135°20'  

Dump ship's entire track history